Wetterdaten: Woche 31.01.22 - 06.02.22 (KW5)
Datum Zeit Temp. Aussen Temp. o. S. Temp +5cm Feuchte Auss Luftdruck Regen Sonnenschein Regendauer Solar Windben Empfang
31.01.2022 00:00 4,8 C 4,2 C 1,1 C 81 % 1018,8 hPa 0,0 l/m 0,00 h 0,00 h 0 W/m 21,4 km/h (4 Bft) 96,21 %
31.01.2022 01:00 4,7 C 4,0 C 0,8 C 82 % 1016,3 hPa 0,0 l/m 0,00 h 0,00 h 0 W/m 21,8 km/h (4 Bft) 97,87 %
31.01.2022 02:00 4,9 C 4,4 C 1,1 C 83 % 1013,7 hPa 0,0 l/m 0,00 h 0,03 h 0 W/m 25,5 km/h (4 Bft) 98,14 %
31.01.2022 03:00 4,6 C 3,5 C 0,2 C 89 % 1011,3 hPa 1,2 l/m 0,00 h 0,97 h 0 W/m 29,2 km/h (5 Bft) 97,57 %
31.01.2022 04:00 4,1 C 3,1 C 0,1 C 94 % 1009,7 hPa 0,8 l/m 0,00 h 0,90 h 0 W/m 21,2 km/h (4 Bft) 96,99 %
31.01.2022 05:00 4,7 C 4,0 C 0,8 C 96 % 1008,8 hPa 0,2 l/m 0,00 h 0,20 h 0 W/m 21,3 km/h (4 Bft) 96,92 %
31.01.2022 06:00 5,3 C 4,6 C 1,5 C 96 % 1008,3 hPa 0,0 l/m 0,00 h 0,97 h 0 W/m 20,9 km/h (4 Bft) 97,01 %
31.01.2022 07:00 5,5 C 4,7 C 1,1 C 92 % 1007,8 hPa 1,4 l/m 0,00 h 0,47 h 0 W/m 21,9 km/h (4 Bft) 97,57 %
31.01.2022 08:00 4,4 C 3,6 C 0,7 C 94 % 1007,7 hPa 0,8 l/m 0,00 h 0,37 h 8 W/m 23,9 km/h (4 Bft) 95,67 %
31.01.2022 09:00 4,5 C 3,7 C 1,0 C 95 % 1007,7 hPa 1,4 l/m 0,00 h 1,00 h 13 W/m 27,9 km/h (4 Bft) 97,74 %
31.01.2022 10:00 4,4 C 3,9 C 1,1 C 95 % 1007,3 hPa 0,8 l/m 0,00 h 1,00 h 30 W/m 26,6 km/h (4 Bft) 94,88 %
31.01.2022 11:00 4,7 C 4,1 C 1,6 C 95 % 1007,8 hPa 0,8 l/m 0,00 h 1,00 h 45 W/m 36,5 km/h (5 Bft) 97,00 %
31.01.2022 12:00 4,8 C 4,3 C 1,7 C 95 % 1008,6 hPa 0,0 l/m 0,00 h 1,00 h 56 W/m 33,3 km/h (5 Bft) 98,86 %
31.01.2022 13:00 4,9 C 4,4 C 1,7 C 95 % 1009,4 hPa 0,2 l/m 0,00 h 1,00 h 66 W/m 33,6 km/h (5 Bft) 95,54 %
31.01.2022 14:00 4,8 C 4,4 C 2,0 C 96 % 1010,0 hPa 0,4 l/m 0,00 h 1,00 h 50 W/m 31,3 km/h (5 Bft) 97,22 %
31.01.2022 15:00 4,9 C 4,4 C 2,2 C 97 % 1010,8 hPa 0,2 l/m 0,00 h 1,00 h 29 W/m 30,0 km/h (5 Bft) 97,87 %
31.01.2022 16:00 5,0 C 4,4 C 2,2 C 97 % 1012,0 hPa 0,4 l/m 0,00 h 0,87 h 10 W/m 26,8 km/h (4 Bft) 96,37 %
31.01.2022 17:00 4,8 C 4,3 C 2,2 C 97 % 1013,0 hPa 0,4 l/m 0,00 h 0,87 h 0 W/m 28,1 km/h (4 Bft) 98,43 %
31.01.2022 18:00 4,9 C 4,3 C 2,5 C 97 % 1014,5 hPa 0,0 l/m 0,00 h 1,00 h 0 W/m 28,4 km/h (4 Bft) 97,94 %
31.01.2022 19:00 5,0 C 4,4 C 2,5 C 96 % 1016,1 hPa 0,6 l/m 0,00 h 0,77 h 0 W/m 29,0 km/h (5 Bft) 94,80 %
31.01.2022 20:00 4,8 C 4,4 C 2,2 C 96 % 1017,5 hPa 0,0 l/m 0,00 h 0,33 h 0 W/m 27,9 km/h (4 Bft) 98,79 %
31.01.2022 21:00 4,7 C 4,2 C 1,9 C 93 % 1018,8 hPa 0,0 l/m 0,00 h 0,07 h 0 W/m 29,8 km/h (5 Bft) 96,94 %
31.01.2022 22:00 4,4 C 3,9 C 1,5 C 92 % 1019,7 hPa 0,0 l/m 0,00 h 0,00 h 0 W/m 22,0 km/h (4 Bft) 98,79 %
31.01.2022 23:00 4,1 C 3,3 C 0,5 C 87 % 1020,2 hPa 0,0 l/m 0,00 h 0,00 h 0 W/m 22,8 km/h (4 Bft) 95,55 %
01.02.2022 00:00 3,1 C 2,3 C -0,1 C 88 % 1020,5 hPa 0,0 l/m 0,00 h 0,00 h 0 W/m 13,0 km/h (3 Bft) 98,96 %
01.02.2022 01:00 2,4 C 1,7 C -0,5 C 92 % 1020,9 hPa 0,0 l/m 0,00 h 0,00 h 0 W/m 13,2 km/h (3 Bft) 96,61 %
01.02.2022 02:00 2,4 C 1,9 C -0,1 C 94 % 1021,1 hPa 0,0 l/m 0,00 h 0,00 h 0 W/m 11,0 km/h (2 Bft) 94,32 %
01.02.2022 03:00 2,6 C 2,2 C 0,0 C 93 % 1021,4 hPa 0,0 l/m 0,00 h 0,00 h 0 W/m 11,4 km/h (2 Bft) 99,44 %
01.02.2022 04:00 2,6 C 2,2 C 0,0 C 93 % 1021,1 hPa 0,0 l/m 0,00 h 0,00 h 0 W/m 10,3 km/h (2 Bft) 96,66 %
01.02.2022 05:00 2,7 C 2,2 C 0,2 C 93 % 1020,6 hPa 0,0 l/m 0,00 h 0,00 h 0 W/m 10,4 km/h (2 Bft) 96,21 %
01.02.2022 06:00 2,9 C 2,2 C 0,6 C 93 % 1020,2 hPa 0,0 l/m 0,00 h 0,00 h 0 W/m 14,4 km/h (3 Bft) 97,43 %
01.02.2022 07:00 2,9 C 2,4 C 0,4 C 93 % 1019,4 hPa 0,0 l/m 0,00 h 0,00 h 0 W/m 14,7 km/h (3 Bft) 99,00 %
01.02.2022 08:00 3,4 C 2,9 C 0,9 C 93 % 1018,9 hPa 0,0 l/m 0,00 h 0,00 h 11 W/m 15,8 km/h (3 Bft) 96,50 %
01.02.2022 09:00 3,8 C 3,3 C 1,1 C 95 % 1018,3 hPa 0,2 l/m 0,00 h 0,53 h 22 W/m 19,8 km/h (4 Bft) 97,94 %
01.02.2022 10:00 3,9 C 3,3 C 1,2 C 97 % 1017,0 hPa 0,6 l/m 0,00 h 0,47 h 45 W/m 24,8 km/h (4 Bft) 98,15 %
01.02.2022 11:00 4,5 C 4,2 C 2,0 C 98 % 1015,5 hPa 0,0 l/m 0,00 h 0,00 h 58 W/m 21,2 km/h (4 Bft) 96,80 %
01.02.2022 12:00 5,5 C 5,0 C 3,0 C 98 % 1014,4 hPa 0,2 l/m 0,00 h 0,87 h 63 W/m 24,0 km/h (4 Bft) 96,87 %
01.02.2022 13:00 6,0 C 5,5 C 3,7 C 98 % 1013,2 hPa 0,2 l/m 0,00 h 0,07 h 88 W/m 22,5 km/h (4 Bft) 98,93 %
01.02.2022 14:00 6,4 C 5,8 C 4,2 C 99 % 1012,3 hPa 0,4 l/m 0,00 h 0,00 h 37 W/m 22,3 km/h (4 Bft) 95,66 %
01.02.2022 15:00 7,0 C 6,4 C 4,8 C 99 % 1011,9 hPa 0,0 l/m 0,00 h 0,00 h 14 W/m 19,2 km/h (3 Bft) 98,79 %
01.02.2022 16:00 7,7 C 7,1 C 5,6 C 99 % 1011,8 hPa 0,2 l/m 0,00 h 0,00 h 9 W/m 20,8 km/h (4 Bft) 97,35 %
01.02.2022 17:00 8,1 C 7,3 C 5,6 C 97 % 1012,1 hPa 0,2 l/m 0,00 h 0,70 h 0 W/m 20,4 km/h (4 Bft) 96,35 %
01.02.2022 18:00 8,2 C 7,4 C 5,8 C 96 % 1012,8 hPa 0,2 l/m 0,00 h 0,10 h 0 W/m 19,1 km/h (3 Bft) 98,53 %
01.02.2022 19:00 8,5 C 7,8 C 5,6 C 94 % 1013,2 hPa 0,0 l/m 0,00 h 0,17 h 0 W/m 21,0 km/h (4 Bft) 98,29 %
01.02.2022 20:00 8,4 C 7,8 C 5,6 C 93 % 1013,5 hPa 0,2 l/m 0,00 h 0,13 h 0 W/m 20,9 km/h (4 Bft) 95,88 %
01.02.2022 21:00 8,7 C 8,0 C 5,6 C 91 % 1013,8 hPa 0,2 l/m 0,00 h 0,30 h 0 W/m 21,2 km/h (4 Bft) 99,29 %
01.02.2022 22:00 8,2 C 7,5 C 5,2 C 91 % 1014,2 hPa 0,0 l/m 0,00 h 0,23 h 0 W/m 20,0 km/h (4 Bft) 97,08 %
01.02.2022 23:00 8,2 C 7,4 C 5,4 C 92 % 1014,3 hPa 0,0 l/m 0,00 h 0,00 h 0 W/m 19,5 km/h (3 Bft) 97,07 %
02.02.2022 00:00 8,1 C 7,4 C 5,0 C 90 % 1014,8 hPa 0,0 l/m 0,00 h 0,00 h 0 W/m 20,6 km/h (4 Bft) 98,66 %
02.02.2022 01:00 7,7 C 6,8 C 4,5 C 90 % 1015,1 hPa 0,0 l/m 0,00 h 0,00 h 0 W/m 20,4 km/h (4 Bft) 97,37 %
02.02.2022 02:00 7,3 C 6,7 C 4,2 C 91 % 1015,4 hPa 0,0 l/m 0,00 h 0,00 h 0 W/m 16,8 km/h (3 Bft) 97,15 %
02.02.2022 03:00 7,6 C 6,9 C 4,4 C 90 % 1015,8 hPa 0,0 l/m 0,00 h 0,00 h 0 W/m 21,2 km/h (4 Bft) 97,36 %
02.02.2022 04:00 7,5 C 6,7 C 4,3 C 89 % 1016,0 hPa 0,0 l/m 0,00 h 0,00 h 0 W/m 20,7 km/h (4 Bft) 97,26 %
02.02.2022 05:00 7,2 C 6,7 C 3,9 C 89 % 1016,2 hPa 0,0 l/m 0,00 h 0,00 h 0 W/m 17,9 km/h (3 Bft) 96,94 %
02.02.2022 06:00 7,2 C 6,7 C 3,9 C 90 % 1016,7 hPa 0,0 l/m 0,00 h 0,00 h 0 W/m 15,0 km/h (3 Bft) 97,54 %
02.02.2022 07:00 7,2 C 6,5 C 3,8 C 90 % 1017,4 hPa 0,0 l/m 0,00 h 0,00 h 0 W/m 12,8 km/h (3 Bft) 97,58 %
02.02.2022 08:00 6,9 C 6,3 C 3,9 C 92 % 1018,1 hPa 0,0 l/m 0,00 h 0,00 h 19 W/m 14,0 km/h (3 Bft) 95,56 %
02.02.2022 09:00 7,1 C 6,9 C 4,2 C 92 % 1018,8 hPa 0,0 l/m 0,37 h 0,00 h 77 W/m 14,9 km/h (3 Bft) 97,65 %
02.02.2022 10:00 7,7 C 7,9 C 5,0 C 91 % 1019,5 hPa 0,0 l/m 0,30 h 0,00 h 128 W/m 15,5 km/h (3 Bft) 97,94 %
02.02.2022 11:00 8,2 C 8,0 C 5,2 C 91 % 1020,2 hPa 0,0 l/m 0,07 h 0,00 h 114 W/m 15,4 km/h (3 Bft) 97,06 %
02.02.2022 12:00 8,8 C 9,2 C 5,8 C 87 % 1020,5 hPa 0,0 l/m 0,30 h 0,00 h 164 W/m 18,3 km/h (3 Bft) 97,68 %
02.02.2022 13:00 8,9 C 9,9 C 5,6 C 86 % 1020,5 hPa 0,0 l/m 0,17 h 0,00 h 135 W/m 15,0 km/h (3 Bft) 97,65 %
02.02.2022 14:00 10,1 C 12,5 C 6,4 C 79 % 1020,4 hPa 0,0 l/m 0,97 h 0,00 h 306 W/m 20,7 km/h (4 Bft) 97,58 %
02.02.2022 15:00 10,1 C 10,9 C 5,9 C 77 % 1020,8 hPa 0,0 l/m 0,83 h 0,00 h 184 W/m 13,2 km/h (3 Bft) 96,23 %
02.02.2022 16:00 9,4 C 8,8 C 5,3 C 81 % 1021,2 hPa 0,0 l/m 0,00 h 0,00 h 41 W/m 9,4 km/h (2 Bft) 98,75 %
02.02.2022 17:00 8,2 C 6,9 C 3,6 C 85 % 1021,3 hPa 0,0 l/m 0,00 h 0,00 h 9 W/m 3,7 km/h (1 Bft) 97,71 %
02.02.2022 18:00 7,3 C 5,7 C 2,3 C 88 % 1021,6 hPa 0,0 l/m 0,00 h 0,00 h 0 W/m 1,2 km/h (1 Bft) 96,44 %
02.02.2022 19:00 6,8 C 6,1 C 2,5 C 91 % 1021,9 hPa 0,0 l/m 0,00 h 0,00 h 0 W/m 1,5 km/h (1 Bft) 98,30 %
02.02.2022 20:00 7,5 C 7,0 C 3,7 C 94 % 1021,9 hPa 0,0 l/m 0,00 h 0,00 h 0 W/m 3,9 km/h (1 Bft) 97,80 %
02.02.2022 21:00 7,8 C 7,2 C 4,2 C 95 % 1021,9 hPa 0,0 l/m 0,00 h 0,00 h 0 W/m 5,2 km/h (1 Bft) 95,65 %
02.02.2022 22:00 8,1 C 7,2 C 4,4 C 96 % 1022,0 hPa 0,0 l/m 0,00 h 0,00 h 0 W/m 8,7 km/h (2 Bft) 96,27 %
02.02.2022 23:00 8,2 C 7,2 C 4,4 C 97 % 1021,9 hPa 0,0 l/m 0,00 h 0,00 h 0 W/m 6,6 km/h (2 Bft) 99,71 %
03.02.2022 00:00 8,2 C 7,5 C 4,9 C 98 % 1021,7 hPa 0,0 l/m 0,00 h 0,00 h 0 W/m 3,4 km/h (1 Bft) 95,51 %
03.02.2022 01:00 8,3 C 7,8 C 5,0 C 98 % 1021,6 hPa 0,0 l/m 0,00 h 0,00 h 0 W/m 4,3 km/h (1 Bft) 98,51 %
03.02.2022 02:00 8,2 C 7,8 C 5,0 C 99 % 1021,2 hPa 0,0 l/m 0,00 h 0,00 h 0 W/m 10,5 km/h (2 Bft) 98,15 %
03.02.2022 03:00 8,3 C 7,8 C 5,3 C 99 % 1020,8 hPa 0,0 l/m 0,00 h 0,00 h 0 W/m 11,4 km/h (2 Bft) 95,82 %
03.02.2022 04:00 8,1 C 7,5 C 5,4 C 98 % 1020,3 hPa 0,0 l/m 0,00 h 0,00 h 0 W/m 12,2 km/h (2 Bft) 98,08 %
03.02.2022 05:00 7,8 C 7,2 C 5,0 C 98 % 1019,6 hPa 0,0 l/m 0,00 h 0,00 h 0 W/m 11,1 km/h (2 Bft) 96,97 %
03.02.2022 06:00 7,6 C 7,1 C 5,0 C 97 % 1019,2 hPa 0,0 l/m 0,00 h 0,00 h 0 W/m 10,5 km/h (2 Bft) 95,51 %
03.02.2022 07:00 7,4 C 6,7 C 4,4 C 96 % 1018,8 hPa 0,0 l/m 0,00 h 0,00 h 0 W/m 5,7 km/h (1 Bft) 99,21 %
03.02.2022 08:00 7,3 C 6,7 C 4,4 C 97 % 1018,3 hPa 0,2 l/m 0,00 h 0,03 h 4 W/m 12,5 km/h (3 Bft) 97,15 %
03.02.2022 09:00 7,3 C 6,7 C 4,4 C 97 % 1017,7 hPa 0,0 l/m 0,00 h 0,00 h 14 W/m 15,8 km/h (3 Bft) 97,15 %
03.02.2022 10:00 7,3 C 6,9 C 4,8 C 96 % 1017,4 hPa 0,0 l/m 0,00 h 0,00 h 17 W/m 16,3 km/h (3 Bft) 98,15 %
03.02.2022 11:00 7,6 C 7,2 C 5,0 C 91 % 1017,1 hPa 0,0 l/m 0,00 h 0,00 h 23 W/m 19,3 km/h (3 Bft) 98,22 %
03.02.2022 12:00 7,3 C 6,7 C 4,3 C 89 % 1016,6 hPa 0,0 l/m 0,00 h 0,00 h 35 W/m 12,3 km/h (3 Bft) 96,60 %
03.02.2022 13:00 7,2 C 6,7 C 4,4 C 90 % 1015,9 hPa 0,0 l/m 0,00 h 0,00 h 31 W/m 16,7 km/h (3 Bft) 98,29 %
03.02.2022 14:00 7,2 C 6,6 C 4,2 C 88 % 1015,2 hPa 0,0 l/m 0,00 h 0,00 h 22 W/m 21,1 km/h (4 Bft) 97,87 %
03.02.2022 15:00 7,1 C 7,0 C 4,2 C 89 % 1014,7 hPa 0,0 l/m 0,27 h 0,00 h 95 W/m 23,2 km/h (4 Bft) 97,60 %
03.02.2022 16:00 7,3 C 6,7 C 4,1 C 88 % 1014,1 hPa 0,0 l/m 0,00 h 0,00 h 36 W/m 20,7 km/h (4 Bft) 96,94 %
03.02.2022 17:00 7,1 C 6,6 C 3,9 C 88 % 1013,9 hPa 0,0 l/m 0,00 h 0,00 h 9 W/m 17,6 km/h (3 Bft) 98,29 %
03.02.2022 18:00 6,9 C 6,1 C 3,4 C 90 % 1013,9 hPa 0,0 l/m 0,00 h 0,00 h 0 W/m 18,9 km/h (3 Bft) 96,69 %
03.02.2022 19:00 6,8 C 6,1 C 3,3 C 90 % 1013,9 hPa 0,0 l/m 0,00 h 0,00 h 0 W/m 20,2 km/h (4 Bft) 95,88 %
03.02.2022 20:00 6,6 C 5,9 C 3,1 C 93 % 1013,7 hPa 0,0 l/m 0,00 h 0,03 h 0 W/m 16,3 km/h (3 Bft) 98,31 %
03.02.2022 21:00 6,4 C 5,6 C 3,0 C 95 % 1013,8 hPa 0,0 l/m 0,00 h 0,00 h 0 W/m 14,5 km/h (3 Bft) 96,37 %
03.02.2022 22:00 6,4 C 5,7 C 3,3 C 96 % 1013,6 hPa 0,0 l/m 0,00 h 0,03 h 0 W/m 15,2 km/h (3 Bft) 97,87 %
03.02.2022 23:00 6,4 C 6,0 C 3,3 C 96 % 1013,5 hPa 0,0 l/m 0,00 h 0,00 h 0 W/m 16,8 km/h (3 Bft) 98,72 %
04.02.2022 00:00 6,5 C 6,1 C 3,7 C 96 % 1013,5 hPa 0,0 l/m 0,00 h 0,00 h 0 W/m 13,2 km/h (3 Bft) 95,95 %
04.02.2022 01:00 6,6 C 6,1 C 3,9 C 96 % 1013,5 hPa 0,0 l/m 0,00 h 0,00 h 0 W/m 9,6 km/h (2 Bft) 98,51 %
04.02.2022 02:00 6,7 C 6,1 C 3,9 C 95 % 1013,2 hPa 0,0 l/m 0,00 h 0,00 h 0 W/m 15,3 km/h (3 Bft) 96,95 %
04.02.2022 03:00 6,8 C 6,1 C 3,9 C 94 % 1012,9 hPa 0,0 l/m 0,00 h 0,00 h 0 W/m 18,0 km/h (3 Bft) 94,88 %
04.02.2022 04:00 6,9 C 6,2 C 3,9 C 93 % 1012,5 hPa 0,0 l/m 0,00 h 0,00 h 0 W/m 18,1 km/h (3 Bft) 99,78 %
04.02.2022 05:00 7,1 C 6,7 C 3,9 C 91 % 1012,3 hPa 0,0 l/m 0,00 h 0,00 h 0 W/m 18,2 km/h (3 Bft) 96,43 %
04.02.2022 06:00 7,3 C 6,7 C 4,1 C 90 % 1012,1 hPa 0,0 l/m 0,00 h 0,00 h 0 W/m 21,3 km/h (4 Bft) 95,25 %
04.02.2022 07:00 7,4 C 6,7 C 4,1 C 89 % 1011,8 hPa 0,0 l/m 0,00 h 0,00 h 0 W/m 23,4 km/h (4 Bft) 98,01 %
04.02.2022 08:00 7,4 C 6,7 C 4,0 C 91 % 1011,8 hPa 0,0 l/m 0,07 h 0,00 h 20 W/m 25,7 km/h (4 Bft) 97,29 %
04.02.2022 09:00 7,5 C 7,0 C 4,4 C 92 % 1011,4 hPa 0,0 l/m 0,00 h 0,00 h 48 W/m 24,3 km/h (4 Bft) 96,94 %
04.02.2022 10:00 7,7 C 7,4 C 4,6 C 92 % 1010,9 hPa 0,0 l/m 0,00 h 0,00 h 78 W/m 28,4 km/h (4 Bft) 99,42 %
04.02.2022 11:00 8,2 C 8,2 C 5,2 C 90 % 1010,2 hPa 0,0 l/m 0,20 h 0,00 h 128 W/m 34,3 km/h (5 Bft) 94,87 %
04.02.2022 12:00 8,5 C 8,2 C 5,3 C 87 % 1009,3 hPa 0,0 l/m 0,03 h 0,00 h 96 W/m 33,2 km/h (5 Bft) 97,65 %
04.02.2022 13:00 8,6 C 8,0 C 5,1 C 85 % 1008,1 hPa 0,0 l/m 0,00 h 0,00 h 62 W/m 32,1 km/h (5 Bft) 98,08 %
04.02.2022 14:00 9,0 C 8,9 C 5,4 C 83 % 1007,0 hPa 0,0 l/m 0,40 h 0,17 h 154 W/m 36,5 km/h (5 Bft) 95,38 %
04.02.2022 15:00 8,8 C 8,3 C 5,1 C 82 % 1006,0 hPa 0,0 l/m 0,00 h 0,00 h 58 W/m 33,4 km/h (5 Bft) 98,43 %
04.02.2022 16:00 8,1 C 7,2 C 3,6 C 87 % 1005,6 hPa 0,4 l/m 0,00 h 0,97 h 14 W/m 33,6 km/h (5 Bft) 99,43 %
04.02.2022 17:00 6,4 C 5,2 C 2,3 C 93 % 1007,1 hPa 1,4 l/m 0,00 h 0,60 h 6 W/m 33,0 km/h (5 Bft) 94,52 %
04.02.2022 18:00 4,5 C 3,9 C 0,8 C 94 % 1010,3 hPa 0,0 l/m 0,00 h 0,13 h 0 W/m 24,5 km/h (4 Bft) 99,22 %
04.02.2022 19:00 3,9 C 3,1 C 0,4 C 94 % 1012,3 hPa 0,4 l/m 0,00 h 0,27 h 0 W/m 20,6 km/h (4 Bft) 95,54 %
04.02.2022 20:00 3,4 C 2,8 C 0,0 C 94 % 1013,3 hPa 0,0 l/m 0,00 h 0,00 h 0 W/m 14,6 km/h (3 Bft) 97,44 %
04.02.2022 21:00 3,3 C 2,7 C 0,0 C 94 % 1013,9 hPa 0,0 l/m 0,00 h 0,00 h 0 W/m 16,8 km/h (3 Bft) 96,12 %
04.02.2022 22:00 3,6 C 2,9 C 0,1 C 93 % 1014,7 hPa 0,0 l/m 0,00 h 0,00 h 0 W/m 17,6 km/h (3 Bft) 96,31 %
04.02.2022 23:00 3,6 C 2,9 C -0,0 C 92 % 1015,5 hPa 0,0 l/m 0,00 h 0,00 h 0 W/m 18,8 km/h (3 Bft) 98,86 %
05.02.2022 00:00 3,2 C 2,2 C -0,2 C 93 % 1016,1 hPa 0,0 l/m 0,00 h 0,00 h 0 W/m 16,9 km/h (3 Bft) 94,90 %
05.02.2022 01:00 3,3 C 2,8 C 0,4 C 92 % 1016,7 hPa 0,0 l/m 0,00 h 0,00 h 0 W/m 18,2 km/h (3 Bft) 98,72 %
05.02.2022 02:00 3,2 C 2,3 C 0,2 C 92 % 1017,4 hPa 0,0 l/m 0,00 h 0,00 h 0 W/m 14,7 km/h (3 Bft) 97,36 %
05.02.2022 03:00 3,1 C 2,2 C 0,2 C 92 % 1018,0 hPa 0,0 l/m 0,00 h 0,00 h 0 W/m 15,2 km/h (3 Bft) 97,15 %
05.02.2022 04:00 3,1 C 2,2 C 0,0 C 91 % 1018,6 hPa 0,0 l/m 0,00 h 0,00 h 0 W/m 16,5 km/h (3 Bft) 97,39 %
05.02.2022 05:00 3,0 C 2,2 C 0,1 C 91 % 1019,1 hPa 0,0 l/m 0,00 h 0,00 h 0 W/m 15,0 km/h (3 Bft) 96,84 %
05.02.2022 06:00 2,6 C 1,9 C -0,1 C 92 % 1019,6 hPa 0,0 l/m 0,00 h 0,00 h 0 W/m 12,9 km/h (3 Bft) 96,94 %
05.02.2022 07:00 2,5 C 1,8 C -0,3 C 92 % 1020,1 hPa 0,0 l/m 0,00 h 0,00 h 0 W/m 12,9 km/h (3 Bft) 97,30 %
05.02.2022 08:00 2,3 C 1,7 C -0,6 C 93 % 1020,7 hPa 0,0 l/m 0,00 h 0,00 h 14 W/m 11,7 km/h (2 Bft) 98,15 %
05.02.2022 09:00 2,9 C 2,7 C 0,3 C 93 % 1021,1 hPa 0,0 l/m 0,13 h 0,00 h 72 W/m 14,2 km/h (3 Bft) 96,65 %
05.02.2022 10:00 4,4 C 9,5 C 1,4 C 91 % 1021,3 hPa 0,0 l/m 1,00 h 0,00 h 253 W/m 15,7 km/h (3 Bft) 95,10 %
05.02.2022 11:00 5,7 C 10,8 C 2,9 C 87 % 1021,7 hPa 0,0 l/m 0,87 h 0,00 h 310 W/m 15,8 km/h (3 Bft) 96,54 %
05.02.2022 12:00 6,3 C 7,9 C 3,4 C 84 % 1021,4 hPa 0,0 l/m 0,63 h 0,00 h 232 W/m 16,3 km/h (3 Bft) 96,09 %
05.02.2022 13:00 7,0 C 9,8 C 3,7 C 79 % 1021,1 hPa 0,0 l/m 0,50 h 0,00 h 281 W/m 20,5 km/h (4 Bft) 99,15 %
05.02.2022 14:00 7,2 C 7,7 C 3,4 C 74 % 1020,6 hPa 0,0 l/m 0,10 h 0,00 h 134 W/m 19,8 km/h (4 Bft) 96,23 %
05.02.2022 15:00 7,5 C 8,3 C 3,5 C 73 % 1020,1 hPa 0,0 l/m 0,93 h 0,00 h 235 W/m 23,8 km/h (4 Bft) 95,73 %
05.02.2022 16:00 7,3 C 6,8 C 3,3 C 73 % 1019,9 hPa 0,0 l/m 0,30 h 0,00 h 56 W/m 24,3 km/h (4 Bft) 98,86 %
05.02.2022 17:00 7,0 C 6,2 C 2,8 C 75 % 1019,5 hPa 0,0 l/m 0,13 h 0,00 h 14 W/m 25,4 km/h (4 Bft) 96,51 %
05.02.2022 18:00 6,6 C 5,8 C 2,4 C 76 % 1018,9 hPa 0,0 l/m 0,00 h 0,00 h 0 W/m 30,5 km/h (5 Bft) 98,05 %
05.02.2022 19:00 6,9 C 6,1 C 2,8 C 76 % 1018,3 hPa 0,0 l/m 0,00 h 0,00 h 0 W/m 34,2 km/h (5 Bft) 97,86 %
05.02.2022 20:00 7,0 C 6,2 C 2,8 C 77 % 1017,6 hPa 0,0 l/m 0,00 h 0,00 h 0 W/m 31,7 km/h (5 Bft) 95,88 %
05.02.2022 21:00 7,2 C 6,7 C 2,9 C 78 % 1017,0 hPa 0,0 l/m 0,00 h 0,00 h 0 W/m 37,2 km/h (5 Bft) 95,45 %
05.02.2022 22:00 7,4 C 6,7 C 3,3 C 78 % 1016,2 hPa 0,0 l/m 0,00 h 0,00 h 0 W/m 34,8 km/h (5 Bft) 97,38 %
05.02.2022 23:00 7,5 C 6,7 C 3,3 C 79 % 1015,5 hPa 0,0 l/m 0,00 h 0,00 h 0 W/m 34,0 km/h (5 Bft) 95,85 %
06.02.2022 00:00 7,1 C 6,1 C 2,2 C 85 % 1014,8 hPa 0,4 l/m 0,00 h 0,93 h 0 W/m 40,3 km/h (6 Bft) 97,77 %
06.02.2022 01:00 6,7 C 5,9 C 2,0 C 90 % 1013,7 hPa 0,0 l/m 0,00 h 0,60 h 0 W/m 37,4 km/h (5 Bft) 97,38 %
06.02.2022 02:00 7,0 C 6,1 C 2,6 C 88 % 1012,8 hPa 0,0 l/m 0,00 h 0,43 h 0 W/m 35,5 km/h (5 Bft) 97,22 %
06.02.2022 03:00 6,8 C 5,6 C 2,2 C 90 % 1011,8 hPa 0,8 l/m 0,00 h 1,00 h 0 W/m 32,1 km/h (5 Bft) 97,94 %
06.02.2022 04:00 6,8 C 5,6 C 2,2 C 92 % 1010,7 hPa 0,8 l/m 0,00 h 1,00 h 0 W/m 32,5 km/h (5 Bft) 97,42 %
06.02.2022 05:00 6,6 C 5,6 C 2,5 C 94 % 1010,0 hPa 1,2 l/m 0,00 h 1,00 h 0 W/m 30,8 km/h (5 Bft) 95,08 %
06.02.2022 06:00 6,8 C 5,8 C 2,8 C 94 % 1008,8 hPa 0,4 l/m 0,00 h 1,00 h 0 W/m 33,6 km/h (5 Bft) 99,19 %
06.02.2022 07:00 6,9 C 6,0 C 3,0 C 95 % 1008,1 hPa 0,4 l/m 0,00 h 1,00 h 0 W/m 30,9 km/h (5 Bft) 96,08 %
06.02.2022 08:00 7,1 C 6,1 C 3,3 C 95 % 1007,2 hPa 0,4 l/m 0,00 h 1,00 h 8 W/m 33,1 km/h (5 Bft) 97,72 %
06.02.2022 09:00 7,2 C 6,3 C 3,5 C 95 % 1005,8 hPa 0,2 l/m 0,00 h 1,00 h 25 W/m 40,8 km/h (6 Bft) 97,31 %
06.02.2022 10:00 7,5 C 6,4 C 3,9 C 94 % 1004,6 hPa 1,0 l/m 0,00 h 1,00 h 34 W/m 42,2 km/h (6 Bft) 95,27 %
06.02.2022 11:00 7,4 C 6,1 C 3,9 C 95 % 1003,2 hPa 2,0 l/m 0,00 h 1,00 h 33 W/m 41,8 km/h (6 Bft) 97,94 %
06.02.2022 12:00 7,4 C 6,1 C 4,2 C 95 % 1001,0 hPa 2,8 l/m 0,00 h 1,00 h 29 W/m 45,1 km/h (6 Bft) 97,53 %
06.02.2022 13:00 7,8 C 6,6 C 4,6 C 96 % 999,3 hPa 2,8 l/m 0,00 h 1,00 h 36 W/m 36,7 km/h (5 Bft) 98,08 %
06.02.2022 14:00 6,9 C 6,0 C 3,7 C 94 % 1000,8 hPa 0,8 l/m 0,00 h 0,97 h 36 W/m 26,9 km/h (4 Bft) 97,22 %
06.02.2022 15:00 6,6 C 6,0 C 3,3 C 93 % 1001,4 hPa 0,0 l/m 0,00 h 0,33 h 34 W/m 15,8 km/h (3 Bft) 97,86 %
06.02.2022 16:00 6,7 C 6,1 C 3,3 C 92 % 1001,7 hPa 0,2 l/m 0,00 h 0,50 h 23 W/m 17,5 km/h (3 Bft) 97,93 %
06.02.2022 17:00 6,7 C 6,1 C 3,1 C 91 % 1001,4 hPa 0,0 l/m 0,00 h 0,00 h 12 W/m 20,2 km/h (4 Bft) 95,02 %
06.02.2022 18:00 6,2 C 5,2 C 2,6 C 90 % 1001,3 hPa 1,8 l/m 0,00 h 0,87 h 0 W/m 24,7 km/h (4 Bft) 97,97 %
06.02.2022 19:00 4,5 C 3,6 C 1,5 C 94 % 1002,1 hPa 1,0 l/m 0,00 h 0,77 h 0 W/m 29,2 km/h (5 Bft) 98,10 %
06.02.2022 20:00 4,4 C 3,8 C 1,5 C 95 % 1002,1 hPa 0,2 l/m 0,00 h 0,43 h 0 W/m 16,7 km/h (3 Bft) 95,63 %
06.02.2022 21:00 4,6 C 3,9 C 1,6 C 95 % 1002,5 hPa 0,0 l/m 0,00 h 0,77 h 0 W/m 20,2 km/h (4 Bft) 97,80 %
06.02.2022 22:00 4,2 C 3,5 C 1,1 C 94 % 1003,4 hPa 0,0 l/m 0,00 h 0,37 h 0 W/m 20,3 km/h (4 Bft) 97,72 %
06.02.2022 23:00 4,0 C 3,3 C 0,9 C 93 % 1004,6 hPa 0,0 l/m 0,00 h 0,07 h 0 W/m 23,4 km/h (4 Bft) 95,64 %
Min-Datum _ 05.02.22 05.02.22 01.02.22 05.02.22 06.02.22 - - - - 02.02.22 02.02.22
_ Min-Zeit 08:12 07:58 00:14 15:30 13:40 - - - - 18:00 21:30
Minimum _ 2,2 C 1,1 C -0,6 C 71 % 998,9 hPa - - - - 0,0 km/h (0 Bft) 31,03 %
Max-Datum _ 02.02.22 05.02.22 02.02.22 01.02.22 02.02.22 06.02.22 02.02.22 31.01.22 05.02.22 04.02.22 31.01.22
_ Max-Zeit 14:30 13:50 14:04 14:12 20:18 12:02 12:08 04:07 13:46 14:04 00:00
Maximum _ 10,4 C 15,0 C 6,7 C 99 % 1022,1 hPa 2,8 l/m 0,07 h 0,08 h 522 W/m 77,2 km/h
S (9 Bft)
100,00 %
Durchschnitt _ 6,2 C 5,7 C 2,9 C 91 % 1014,4 hPa #31,8 l/m #8:34 h #38:38 h 68 W/m 21,0 km/h (4 Bft) 97,23 %
© 2022 W. Hausmann